createdAt,value
2023-03-25T00:01:19.626Z,62.30
2023-03-25T00:03:50.365Z,62.10
2023-03-25T00:06:17.395Z,62.10
2023-03-25T00:08:44.680Z,62.20
2023-03-25T00:11:11.927Z,62.20
2023-03-25T00:13:40.431Z,62.20
2023-03-25T00:16:10.344Z,62.20
2023-03-25T00:18:38.076Z,62.20
2023-03-25T00:21:10.709Z,62.20
2023-03-25T00:23:39.879Z,62.30
2023-03-25T00:26:07.468Z,62.20
2023-03-25T00:28:37.533Z,62.20
2023-03-25T00:31:09.510Z,62.30
2023-03-25T00:33:36.595Z,62.30
2023-03-25T00:36:05.725Z,62.20
2023-03-25T00:38:35.505Z,62.20
2023-03-25T00:41:22.998Z,62.30
2023-03-25T00:43:53.926Z,62.30
2023-03-25T00:46:23.340Z,62.20
2023-03-25T00:48:50.782Z,62.30
2023-03-25T00:51:19.424Z,62.30
2023-03-25T00:53:54.545Z,62.30
2023-03-25T00:56:23.475Z,62.40
2023-03-25T00:58:51.164Z,62.40
2023-03-25T01:01:27.117Z,62.30
2023-03-25T01:03:58.684Z,62.30
2023-03-25T01:06:30.060Z,62.30
2023-03-25T01:08:58.968Z,62.40
2023-03-25T01:11:30.279Z,62.40
2023-03-25T01:13:59.821Z,62.40
2023-03-25T01:16:28.579Z,62.40
2023-03-25T01:18:56.367Z,62.40
2023-03-25T01:21:25.741Z,62.40
2023-03-25T01:23:52.901Z,62.40
2023-03-25T01:26:19.842Z,62.40
2023-03-25T01:28:47.128Z,63.30
2023-03-25T01:31:16.016Z,62.30
2023-03-25T01:33:43.277Z,62.40
2023-03-25T01:36:13.027Z,62.30
2023-03-25T01:38:41.446Z,62.30
2023-03-25T01:41:10.253Z,62.30
2023-03-25T01:43:37.455Z,62.30
2023-03-25T01:46:04.896Z,62.30
2023-03-25T01:48:40.711Z,62.30
2023-03-25T01:51:13.336Z,62.30
2023-03-25T01:53:41.618Z,62.30
2023-03-25T01:56:13.485Z,62.30
2023-03-25T01:58:41.486Z,62.30
2023-03-25T02:01:14.000Z,62.30
2023-03-25T02:03:46.133Z,62.30
2023-03-25T02:06:26.488Z,62.30
2023-03-25T02:08:57.088Z,62.30
2023-03-25T02:11:29.059Z,62.30
2023-03-25T02:14:01.321Z,62.30
2023-03-25T02:16:54.683Z,62.30
2023-03-25T02:20:09.274Z,62.30
2023-03-25T02:23:14.070Z,62.30
2023-03-25T02:26:23.308Z,62.30
2023-03-25T02:28:56.147Z,62.30
2023-03-25T02:32:06.002Z,62.20
2023-03-25T02:35:11.179Z,62.20
2023-03-25T02:38:13.500Z,62.20
2023-03-25T02:41:05.111Z,62.20
2023-03-25T02:44:01.536Z,62.20
2023-03-25T02:46:30.285Z,62.20
2023-03-25T02:49:06.310Z,62.20
2023-03-25T02:51:44.569Z,62.20
2023-03-25T02:54:14.295Z,62.20
2023-03-25T02:56:44.635Z,62.20
2023-03-25T02:59:14.260Z,62.20
2023-03-25T03:01:41.774Z,62.20
2023-03-25T03:04:09.100Z,62.20
2023-03-25T03:06:42.954Z,62.20
2023-03-25T03:09:45.117Z,62.20
2023-03-25T03:12:41.703Z,62.10
2023-03-25T03:15:37.298Z,63.10
2023-03-25T03:18:09.679Z,62.20
2023-03-25T03:21:12.694Z,62.20
2023-03-25T03:23:56.769Z,62.20
2023-03-25T03:26:47.943Z,62.20
2023-03-25T03:29:25.732Z,62.20
2023-03-25T03:32:42.102Z,62.10
2023-03-25T03:35:15.518Z,62.20
2023-03-25T03:37:48.853Z,62.20
2023-03-25T03:40:20.721Z,62.20
2023-03-25T03:43:01.652Z,62.20
2023-03-25T03:45:39.590Z,62.20
2023-03-25T03:48:17.664Z,62.10
2023-03-25T03:50:54.352Z,62.10
2023-03-25T03:53:28.984Z,62.10
2023-03-25T03:56:08.578Z,62.10
2023-03-25T03:58:41.885Z,62.20
2023-03-25T04:01:59.001Z,62.10
2023-03-25T04:04:29.694Z,62.10
2023-03-25T04:07:22.843Z,62.10
2023-03-25T04:10:15.113Z,62.10
2023-03-25T04:12:54.317Z,62.10
2023-03-25T04:15:21.715Z,62.10
2023-03-25T04:17:49.122Z,62.10
2023-03-25T04:20:23.708Z,62.10
2023-03-25T04:22:52.332Z,62.10
2023-03-25T04:25:21.579Z,62.10
2023-03-25T04:27:49.329Z,62.10
2023-03-25T04:30:19.881Z,62.10
2023-03-25T04:32:47.499Z,62.10
2023-03-25T04:35:19.270Z,62.10
2023-03-25T04:37:48.983Z,62.00
2023-03-25T04:40:19.040Z,62.10
2023-03-25T04:42:47.410Z,63.00
2023-03-25T04:45:16.919Z,62.10
2023-03-25T04:47:47.743Z,62.00
2023-03-25T04:50:22.301Z,62.00
2023-03-25T04:52:53.446Z,62.10
2023-03-25T04:55:22.117Z,62.00
2023-03-25T04:57:52.066Z,62.90
2023-03-25T05:00:23.974Z,62.10
2023-03-25T05:02:56.668Z,62.10
2023-03-25T05:05:26.112Z,62.00
2023-03-25T05:07:55.505Z,62.10
2023-03-25T05:10:26.429Z,62.00
2023-03-25T05:13:01.658Z,61.90
2023-03-25T05:15:30.875Z,62.10
2023-03-25T05:17:58.454Z,61.90
2023-03-25T05:20:25.855Z,62.00
2023-03-25T05:22:53.695Z,62.00
2023-03-25T05:25:23.586Z,62.00
2023-03-25T05:27:50.755Z,62.00
2023-03-25T05:30:18.342Z,62.00
2023-03-25T05:32:50.696Z,62.00
2023-03-25T05:35:23.622Z,62.00
2023-03-25T05:37:51.578Z,62.00
2023-03-25T05:40:19.034Z,62.00
2023-03-25T05:42:49.076Z,62.00
2023-03-25T05:45:16.747Z,62.10
2023-03-25T05:47:44.645Z,62.10
2023-03-25T05:50:12.323Z,62.10
2023-03-25T05:52:41.610Z,62.10
2023-03-25T05:55:16.288Z,62.00
2023-03-25T05:57:43.731Z,62.20
2023-03-25T06:00:13.257Z,62.00
2023-03-25T06:02:43.267Z,62.10
2023-03-25T06:05:16.252Z,62.10
2023-03-25T06:07:48.334Z,62.10
2023-03-25T06:10:17.095Z,62.20
2023-03-25T06:12:48.360Z,62.20
2023-03-25T06:15:33.707Z,62.20
2023-03-25T06:18:01.374Z,62.20
2023-03-25T06:20:28.671Z,62.30
2023-03-25T06:22:56.212Z,62.20
2023-03-25T06:25:24.367Z,62.30
2023-03-25T06:27:51.532Z,62.30
2023-03-25T06:30:22.390Z,62.30
2023-03-25T06:32:51.146Z,62.20
2023-03-25T06:35:20.238Z,62.20
2023-03-25T06:37:49.404Z,62.20
2023-03-25T06:40:35.238Z,62.20
2023-03-25T06:43:05.036Z,62.10
2023-03-25T06:45:54.101Z,62.20
2023-03-25T06:48:34.472Z,62.20
2023-03-25T06:51:01.539Z,62.30
2023-03-25T06:53:29.022Z,62.30
2023-03-25T06:56:00.105Z,62.30
2023-03-25T06:58:34.639Z,62.30
2023-03-25T07:01:07.555Z,62.30
2023-03-25T07:03:36.775Z,62.30
2023-03-25T07:06:07.865Z,62.30
2023-03-25T07:08:35.249Z,62.30
2023-03-25T07:11:07.615Z,62.30
2023-03-25T07:13:35.278Z,62.40
2023-03-25T07:16:03.137Z,62.30
2023-03-25T07:18:30.614Z,62.20
2023-03-25T07:20:58.120Z,62.50
2023-03-25T07:23:25.513Z,62.40
2023-03-25T07:25:53.227Z,62.40
2023-03-25T07:28:29.027Z,62.20
2023-03-25T07:30:56.132Z,62.30
2023-03-25T07:33:23.126Z,62.20
2023-03-25T07:35:50.588Z,62.20
2023-03-25T07:38:17.787Z,62.20
2023-03-25T07:40:44.904Z,62.20
2023-03-25T07:43:17.678Z,62.20
2023-03-25T07:45:54.242Z,62.30
2023-03-25T07:48:22.739Z,62.20
2023-03-25T07:50:52.520Z,62.20
2023-03-25T07:53:20.236Z,62.20
2023-03-25T07:55:48.479Z,62.20
2023-03-25T07:58:16.563Z,62.30
2023-03-25T08:00:43.912Z,62.30
2023-03-25T08:03:13.262Z,62.40
2023-03-25T08:05:48.841Z,62.50
2023-03-25T08:08:16.353Z,62.40
2023-03-25T08:10:44.698Z,62.40
2023-03-25T08:13:12.309Z,62.50
2023-03-25T08:15:40.725Z,62.50
2023-03-25T08:18:08.264Z,62.30
2023-03-25T08:20:36.307Z,62.50
2023-03-25T08:23:03.542Z,62.30
2023-03-25T08:25:31.730Z,62.60
2023-03-25T08:27:58.752Z,62.40
2023-03-25T08:30:26.048Z,62.40
2023-03-25T08:32:55.627Z,62.30
2023-03-25T08:35:24.234Z,62.40
2023-03-25T08:37:52.979Z,62.40
2023-03-25T08:40:20.185Z,62.50
2023-03-25T08:42:47.492Z,62.30
2023-03-25T08:45:17.228Z,62.30
2023-03-25T08:47:45.744Z,62.40
2023-03-25T08:50:13.389Z,62.30
2023-03-25T08:52:41.418Z,62.40
2023-03-25T08:55:12.313Z,62.40
2023-03-25T08:57:39.576Z,62.40
2023-03-25T09:00:13.073Z,62.40
2023-03-25T09:02:44.389Z,62.30
2023-03-25T09:05:12.967Z,62.40
2023-03-25T09:07:40.377Z,62.40
2023-03-25T09:10:08.546Z,62.30
2023-03-25T09:12:35.793Z,62.40
2023-03-25T09:15:03.023Z,62.30
2023-03-25T09:17:30.592Z,62.40
2023-03-25T09:19:58.875Z,62.40
2023-03-25T09:22:26.224Z,62.30
2023-03-25T09:24:53.453Z,62.40
2023-03-25T09:27:20.611Z,62.40
2023-03-25T09:29:47.997Z,62.40
2023-03-25T09:32:15.177Z,62.40
2023-03-25T09:34:42.262Z,62.40
2023-03-25T09:37:09.395Z,62.40
2023-03-25T09:39:36.818Z,62.40
2023-03-25T09:42:44.308Z,62.30
2023-03-25T09:45:22.342Z,62.30
2023-03-25T09:48:03.488Z,62.50
2023-03-25T09:50:34.905Z,62.50
2023-03-25T09:53:11.165Z,62.50
2023-03-25T09:55:44.747Z,62.50
2023-03-25T09:58:45.130Z,62.40
2023-03-25T10:01:34.761Z,62.50
2023-03-25T10:04:39.418Z,62.40
2023-03-25T10:07:54.727Z,62.40
2023-03-25T10:10:39.955Z,62.40
2023-03-25T10:13:35.283Z,62.60
2023-03-25T10:16:45.517Z,62.60
2023-03-25T10:20:18.461Z,62.60
2023-03-25T10:23:18.261Z,62.60
2023-03-25T10:25:51.594Z,62.50
2023-03-25T10:28:27.352Z,62.60
2023-03-25T10:30:56.053Z,62.60
2023-03-25T10:33:35.077Z,62.60
2023-03-25T10:36:05.570Z,62.60
2023-03-25T10:38:36.695Z,62.60
2023-03-25T10:41:23.167Z,62.60
2023-03-25T10:43:50.862Z,62.60
2023-03-25T10:46:49.113Z,62.70
2023-03-25T10:49:22.245Z,62.70
2023-03-25T10:51:59.410Z,62.70
2023-03-25T10:54:32.282Z,62.70
2023-03-25T10:57:04.039Z,62.80
2023-03-25T10:59:43.410Z,62.80
2023-03-25T11:02:21.039Z,62.70
2023-03-25T11:04:54.150Z,62.70
2023-03-25T11:07:42.362Z,62.70
2023-03-25T11:10:26.848Z,62.70
2023-03-25T11:12:55.464Z,62.80
2023-03-25T11:15:40.924Z,62.80
2023-03-25T11:18:34.391Z,62.80
2023-03-25T11:21:07.866Z,62.80
2023-03-25T11:23:38.148Z,63.00
2023-03-25T11:26:30.190Z,63.00
2023-03-25T11:29:06.390Z,62.90
2023-03-25T11:31:37.952Z,63.00
2023-03-25T11:34:11.236Z,62.90
2023-03-25T11:36:55.731Z,63.70
2023-03-25T11:39:43.142Z,62.70
2023-03-25T11:42:20.166Z,62.70
2023-03-25T11:44:56.070Z,62.90
2023-03-25T11:47:26.656Z,62.70
2023-03-25T11:49:54.682Z,62.80
2023-03-25T11:52:28.434Z,62.90
2023-03-25T11:54:56.929Z,62.80
2023-03-25T11:57:30.151Z,62.60
2023-03-25T12:00:13.738Z,62.70
2023-03-25T12:02:41.537Z,62.70
2023-03-25T12:05:09.072Z,62.70
2023-03-25T12:07:49.573Z,62.70
2023-03-25T12:10:28.975Z,62.60
2023-03-25T12:13:17.683Z,62.60
2023-03-25T12:15:59.529Z,62.50
2023-03-25T12:18:35.429Z,62.50
2023-03-25T12:21:12.652Z,62.60
2023-03-25T12:24:01.413Z,62.50
2023-03-25T12:27:00.375Z,62.50
2023-03-25T12:29:41.977Z,62.50
2023-03-25T12:32:23.748Z,62.50
2023-03-25T12:35:19.678Z,62.40
2023-03-25T12:38:20.875Z,62.50
2023-03-25T12:41:12.786Z,62.50
2023-03-25T12:44:03.143Z,62.50
2023-03-25T12:46:39.443Z,62.50
2023-03-25T12:49:21.389Z,62.50
2023-03-25T12:52:18.053Z,62.40
2023-03-25T12:55:09.275Z,62.20
2023-03-25T12:57:41.988Z,62.10
2023-03-25T13:00:27.139Z,62.30
2023-03-25T13:03:34.697Z,62.30
2023-03-25T13:06:30.589Z,61.20
2023-03-25T13:09:22.543Z,61.20
2023-03-25T13:12:03.928Z,61.50
2023-03-25T13:14:36.832Z,61.50
2023-03-25T13:17:14.087Z,61.60
2023-03-25T13:19:44.302Z,61.70
2023-03-25T13:22:26.102Z,61.80
2023-03-25T13:24:59.250Z,61.50
2023-03-25T13:27:32.171Z,61.50
2023-03-25T13:30:01.048Z,61.60
2023-03-25T13:32:48.589Z,61.50
2023-03-25T13:35:35.052Z,61.50
2023-03-25T13:38:13.091Z,60.20
2023-03-25T13:41:21.872Z,60.60
2023-03-25T13:44:01.041Z,60.60
2023-03-25T13:46:45.829Z,61.00
2023-03-25T13:49:55.830Z,61.00
2023-03-25T13:52:27.128Z,61.20
2023-03-25T13:55:04.791Z,61.30
2023-03-25T13:58:28.387Z,60.90
2023-03-25T14:01:04.501Z,61.00
2023-03-25T14:03:50.620Z,61.00
2023-03-25T14:06:35.793Z,60.80
2023-03-25T14:09:45.849Z,60.90
2023-03-25T14:12:47.832Z,61.10
2023-03-25T14:15:28.327Z,61.10
2023-03-25T14:17:57.550Z,61.00
2023-03-25T14:20:32.476Z,60.90
2023-03-25T14:23:05.181Z,60.70
2023-03-25T14:25:45.152Z,60.90
2023-03-25T14:28:37.333Z,60.50
2023-03-25T14:31:22.967Z,60.00
2023-03-25T14:34:02.199Z,59.30
2023-03-25T14:36:42.317Z,59.60
2023-03-25T14:39:35.036Z,59.90
2023-03-25T14:42:08.112Z,60.10
2023-03-25T14:44:41.445Z,60.10
2023-03-25T14:47:20.745Z,60.20
2023-03-25T14:50:06.118Z,60.10
2023-03-25T14:52:42.034Z,60.40
2023-03-25T14:55:26.237Z,60.40
2023-03-25T14:58:26.224Z,60.30
2023-03-25T15:01:15.355Z,60.30
2023-03-25T15:03:46.151Z,60.20
2023-03-25T15:06:32.883Z,60.20
2023-03-25T15:09:08.218Z,60.20
2023-03-25T15:11:38.327Z,60.10
2023-03-25T15:14:17.270Z,60.20
2023-03-25T15:16:58.468Z,60.20
2023-03-25T15:19:25.909Z,60.10
2023-03-25T15:22:00.370Z,60.20
2023-03-25T15:24:40.335Z,60.20
2023-03-25T15:27:59.045Z,60.20
2023-03-25T15:30:47.220Z,60.20
2023-03-25T15:33:35.486Z,60.20
2023-03-25T15:36:39.795Z,60.30
2023-03-25T15:39:29.843Z,60.30
2023-03-25T15:42:10.472Z,60.40
2023-03-25T15:45:11.959Z,60.20
2023-03-25T15:48:30.957Z,60.20
2023-03-25T15:51:09.594Z,60.20
2023-03-25T15:54:23.131Z,60.20
2023-03-25T15:56:54.865Z,60.00
2023-03-25T15:59:43.667Z,59.80
2023-03-25T16:02:44.475Z,59.80
2023-03-25T16:05:15.949Z,59.60
2023-03-25T16:07:43.684Z,59.50
2023-03-25T16:10:22.006Z,59.50
2023-03-25T16:12:50.785Z,59.40
2023-03-25T16:15:31.484Z,59.20
2023-03-25T16:18:01.164Z,58.90
2023-03-25T16:20:31.940Z,58.70
2023-03-25T16:23:00.840Z,58.60
2023-03-25T16:25:37.939Z,58.60
2023-03-25T16:28:18.753Z,58.40
2023-03-25T16:30:54.336Z,58.50
2023-03-25T16:33:38.524Z,58.60
2023-03-25T16:36:15.130Z,58.80
2023-03-25T16:38:43.213Z,58.80
2023-03-25T16:41:14.795Z,58.90
2023-03-25T16:43:43.006Z,59.00
2023-03-25T16:46:21.210Z,59.10
2023-03-25T16:48:54.144Z,58.80
2023-03-25T16:51:32.054Z,58.70
2023-03-25T16:53:59.636Z,58.50
2023-03-25T16:56:32.834Z,58.60
2023-03-25T16:59:06.892Z,58.60
2023-03-25T17:01:42.279Z,58.50
2023-03-25T17:04:22.073Z,58.70
2023-03-25T17:06:56.795Z,58.70
2023-03-25T17:09:34.138Z,58.80
2023-03-25T17:12:08.076Z,59.10
2023-03-25T17:14:42.037Z,59.20
2023-03-25T17:17:48.630Z,59.20
2023-03-25T17:20:25.166Z,59.30
2023-03-25T17:23:20.599Z,59.30
2023-03-25T17:25:56.677Z,59.40
2023-03-25T17:28:52.908Z,59.30
2023-03-25T17:31:36.650Z,59.40
2023-03-25T17:34:27.858Z,59.50
2023-03-25T17:37:02.744Z,59.60
2023-03-25T17:39:33.133Z,59.70
2023-03-25T17:42:08.905Z,59.70
2023-03-25T17:44:43.882Z,59.60
2023-03-25T17:47:18.566Z,59.60
2023-03-25T17:49:46.162Z,59.70
2023-03-25T17:52:13.371Z,59.80
2023-03-25T17:54:40.650Z,59.70
2023-03-25T17:57:14.755Z,59.80
2023-03-25T17:59:41.870Z,59.80
2023-03-25T18:02:15.481Z,59.90
2023-03-25T18:04:43.005Z,60.00
2023-03-25T18:07:10.967Z,60.00
2023-03-25T18:09:39.386Z,59.90
2023-03-25T18:12:06.907Z,59.90
2023-03-25T18:14:35.049Z,59.90
2023-03-25T18:17:03.955Z,59.90
2023-03-25T18:19:32.239Z,60.00
2023-03-25T18:22:13.749Z,60.00
2023-03-25T18:24:47.010Z,60.00
2023-03-25T18:27:14.742Z,60.00
2023-03-25T18:29:42.301Z,60.00
2023-03-25T18:32:09.677Z,60.00
2023-03-25T18:34:36.844Z,60.10
2023-03-25T18:37:04.179Z,60.10
2023-03-25T18:39:32.265Z,60.10
2023-03-25T18:41:59.414Z,60.10
2023-03-25T18:44:28.318Z,60.20
2023-03-25T18:46:55.754Z,60.20
2023-03-25T18:49:23.066Z,60.20
2023-03-25T18:51:50.320Z,60.30
2023-03-25T18:54:17.596Z,60.20
2023-03-25T18:56:45.408Z,60.30
2023-03-25T18:59:18.704Z,60.30
2023-03-25T19:01:46.017Z,61.30
2023-03-25T19:04:13.629Z,60.30
2023-03-25T19:06:40.873Z,60.30
2023-03-25T19:09:09.620Z,60.30
2023-03-25T19:11:36.771Z,60.40
2023-03-25T19:14:03.935Z,60.40
2023-03-25T19:16:31.075Z,60.50
2023-03-25T19:18:59.207Z,60.40
2023-03-25T19:21:26.411Z,60.50
2023-03-25T19:23:53.538Z,60.50
2023-03-25T19:26:20.749Z,60.50
2023-03-25T19:28:47.933Z,60.50
2023-03-25T19:31:16.492Z,60.60
2023-03-25T19:33:43.903Z,60.60
2023-03-25T19:36:18.982Z,60.60
2023-03-25T19:38:46.350Z,60.70
2023-03-25T19:41:16.349Z,60.60
2023-03-25T19:43:43.904Z,60.70
2023-03-25T19:46:11.925Z,60.70
2023-03-25T19:48:39.570Z,60.60
2023-03-25T19:51:06.992Z,60.60
2023-03-25T19:53:34.266Z,60.70
2023-03-25T19:56:05.822Z,60.70
2023-03-25T19:58:34.946Z,60.80
2023-03-25T20:01:02.131Z,60.70
2023-03-25T20:03:31.431Z,60.80
2023-03-25T20:06:00.580Z,60.90
2023-03-25T20:08:29.879Z,60.90
2023-03-25T20:10:57.302Z,60.90
2023-03-25T20:13:26.779Z,60.90
2023-03-25T20:15:54.446Z,60.90
2023-03-25T20:18:21.905Z,60.80
2023-03-25T20:20:50.316Z,60.90
2023-03-25T20:23:17.499Z,60.90
2023-03-25T20:25:44.872Z,60.90
2023-03-25T20:28:11.999Z,60.90
2023-03-25T20:30:39.511Z,61.00
2023-03-25T20:33:06.540Z,61.00
2023-03-25T20:35:35.139Z,61.00
2023-03-25T20:38:02.360Z,61.10
2023-03-25T20:40:43.487Z,61.10
2023-03-25T20:43:13.896Z,61.10
2023-03-25T20:45:42.274Z,61.10
2023-03-25T20:48:09.493Z,61.10
2023-03-25T20:50:37.059Z,61.10
2023-03-25T20:53:05.713Z,61.10
2023-03-25T20:55:32.924Z,61.10
2023-03-25T20:58:00.021Z,61.20
2023-03-25T21:00:28.046Z,61.20
2023-03-25T21:02:55.454Z,61.20
2023-03-25T21:05:22.768Z,61.30
2023-03-25T21:07:51.053Z,61.30
2023-03-25T21:10:20.050Z,61.30
2023-03-25T21:12:47.971Z,61.30
2023-03-25T21:15:15.507Z,61.40
2023-03-25T21:17:43.416Z,61.40
2023-03-25T21:20:11.797Z,61.40
2023-03-25T21:22:43.917Z,61.30
2023-03-25T21:25:14.340Z,61.40
2023-03-25T21:27:44.746Z,61.40
2023-03-25T21:30:13.035Z,61.40
2023-03-25T21:32:41.094Z,61.40
2023-03-25T21:35:09.534Z,61.50
2023-03-25T21:37:38.920Z,61.50
2023-03-25T21:40:10.837Z,61.50
2023-03-25T21:42:41.175Z,61.60
2023-03-25T21:45:11.032Z,61.60
2023-03-25T21:47:38.262Z,61.60
2023-03-25T21:50:10.110Z,61.60
2023-03-25T21:52:42.954Z,61.70
2023-03-25T21:55:11.134Z,61.70
2023-03-25T21:57:39.537Z,61.70
2023-03-25T22:00:08.970Z,61.60
2023-03-25T22:02:45.228Z,61.70
2023-03-25T22:05:14.904Z,61.70
2023-03-25T22:07:42.284Z,61.80
2023-03-25T22:10:10.785Z,61.70
2023-03-25T22:12:38.030Z,61.80
2023-03-25T22:15:06.009Z,61.80
2023-03-25T22:17:33.321Z,61.80
2023-03-25T22:20:00.332Z,61.90
2023-03-25T22:22:27.606Z,61.90
2023-03-25T22:24:54.673Z,61.90
2023-03-25T22:27:21.988Z,61.90
2023-03-25T22:29:48.996Z,62.00
2023-03-25T22:32:16.181Z,62.10
2023-03-25T22:34:43.281Z,62.20
2023-03-25T22:37:10.273Z,62.10
2023-03-25T22:39:38.879Z,62.20
2023-03-25T22:42:06.286Z,62.10
2023-03-25T22:44:33.507Z,62.20
2023-03-25T22:47:01.070Z,62.20
2023-03-25T22:49:28.395Z,62.20
2023-03-25T22:51:55.993Z,62.10
2023-03-25T22:54:23.555Z,62.10
2023-03-25T22:56:51.097Z,62.20
2023-03-25T22:59:18.378Z,62.20
2023-03-25T23:01:45.906Z,62.20
2023-03-25T23:04:13.674Z,62.10
2023-03-25T23:06:41.670Z,62.20
2023-03-25T23:09:10.658Z,62.10
2023-03-25T23:11:38.710Z,62.10
2023-03-25T23:14:13.110Z,62.20
2023-03-25T23:16:41.665Z,62.20
2023-03-25T23:19:09.809Z,62.20
2023-03-25T23:21:38.256Z,62.10
2023-03-25T23:24:05.879Z,62.10
2023-03-25T23:26:36.993Z,62.10
2023-03-25T23:29:08.854Z,62.10
2023-03-25T23:31:37.674Z,62.10
2023-03-25T23:34:07.369Z,62.10
2023-03-25T23:36:36.854Z,62.10
2023-03-25T23:39:14.136Z,62.10
2023-03-25T23:41:41.668Z,62.10
2023-03-25T23:44:08.876Z,62.10
2023-03-25T23:46:36.118Z,62.10
2023-03-25T23:49:03.418Z,62.10
2023-03-25T23:51:36.355Z,62.10
2023-03-25T23:54:06.421Z,62.10
2023-03-25T23:56:34.107Z,62.10
2023-03-25T23:59:02.011Z,62.10
